Time;durP1;ratioP1;P1;durP2;ratioP2;P2;SDS_P1;SDS_P2;PMS_P1;PMS_P2;Temp;Humidity;BMP_temperature;BMP_pressure;BME280_temperature;BME280_humidity;BME280_pressure;Samples;Min_cycle;Max_cycle;Signal;HPM_P1;HPM_P2
2024/03/06 00:00:48;;;;;;;1.60;1.50;;;24.20;1.00;;;;;;2608710;54;20177;-68
2024/03/06 00:03:14;;;;;;;1.70;1.60;;;24.20;1.00;;;;;;2609049;54;20140;-68
2024/03/06 00:05:40;;;;;;;1.70;1.60;;;24.20;1.00;;;;;;2609405;54;20259;-69
2024/03/06 00:08:06;;;;;;;1.60;1.50;;;24.10;1.00;;;;;;2610426;54;20276;-69
2024/03/06 00:10:32;;;;;;;1.60;1.50;;;24.10;1.00;;;;;;2610405;39;20642;-70
2024/03/06 00:12:57;;;;;;;1.60;1.50;;;24.10;1.00;;;;;;2610549;54;20406;-70
2024/03/06 00:15:23;;;;;;;1.50;1.40;;;24.10;1.00;;;;;;2607762;54;20150;-70
2024/03/06 00:17:49;;;;;;;1.50;1.47;;;24.10;1.00;;;;;;2611502;51;20178;-70
2024/03/06 00:20:15;;;;;;;1.60;1.50;;;24.10;1.00;;;;;;2609944;54;20158;-70
2024/03/06 00:22:40;;;;;;;1.70;1.60;;;24.00;1.00;;;;;;2611035;39;20845;-69
2024/03/06 00:25:07;;;;;;;1.60;1.50;;;24.00;1.00;;;;;;2610526;54;20144;-69
2024/03/06 00:27:33;;;;;;;1.60;1.50;;;24.00;1.00;;;;;;2612099;39;20552;-69
2024/03/06 00:29:58;;;;;;;1.63;1.53;;;24.00;1.00;;;;;;2609838;39;20692;-69
2024/03/06 00:32:24;;;;;;;1.70;1.60;;;24.00;1.00;;;;;;2610436;54;20398;-70
2024/03/06 00:34:50;;;;;;;1.60;1.50;;;24.00;1.00;;;;;;2610133;54;20721;-68
2024/03/06 00:37:15;;;;;;;1.70;1.60;;;24.00;1.00;;;;;;2608291;54;20191;-70
2024/03/06 00:39:41;;;;;;;1.63;1.53;;;23.90;1.00;;;;;;2609995;54;20158;-66
2024/03/06 00:42:08;;;;;;;1.60;1.50;;;23.90;1.00;;;;;;2610051;54;20191;-66
2024/03/06 00:44:34;;;;;;;1.40;1.30;;;23.90;1.00;;;;;;2610841;54;20188;-65
2024/03/06 00:47:00;;;;;;;1.70;1.60;;;23.90;1.00;;;;;;2609822;54;20403;-66
2024/03/06 00:49:25;;;;;;;1.80;1.70;;;23.90;1.00;;;;;;2609784;54;20150;-72
2024/03/06 00:51:51;;;;;;;1.60;1.50;;;23.90;1.00;;;;;;2611346;31;20637;-71
2024/03/06 00:54:17;;;;;;;2.97;2.83;;;23.90;1.00;;;;;;2608548;54;20171;-71
2024/03/06 00:56:43;;;;;;;1.60;1.50;;;23.90;1.00;;;;;;2608078;39;20582;-72
2024/03/06 00:59:08;;;;;;;1.30;1.30;;;23.80;1.00;;;;;;2609787;54;20260;-71
2024/03/06 01:01:34;;;;;;;1.67;1.57;;;23.80;1.00;;;;;;2607501;47;20654;-71
2024/03/06 01:04:00;;;;;;;1.60;1.50;;;23.80;1.00;;;;;;2610616;54;20253;-71
2024/03/06 01:06:26;;;;;;;1.60;1.50;;;23.80;1.00;;;;;;2611204;54;20711;-71
2024/03/06 01:08:51;;;;;;;1.60;1.50;;;23.80;1.00;;;;;;2609608;54;20430;-71
2024/03/06 01:11:17;;;;;;;1.57;1.50;;;23.80;1.00;;;;;;2609439;47;20256;-71
2024/03/06 01:13:43;;;;;;;1.70;1.60;;;23.80;1.00;;;;;;2608845;54;20179;-71
2024/03/06 01:16:08;;;;;;;1.80;1.70;;;23.80;1.00;;;;;;2610779;54;20272;-70
2024/03/06 01:18:34;;;;;;;1.70;1.60;;;23.80;1.00;;;;;;2608731;54;20698;-70
2024/03/06 01:20:59;;;;;;;1.70;1.60;;;23.80;1.00;;;;;;2607964;54;20159;-72
2024/03/06 01:23:25;;;;;;;1.70;1.60;;;23.80;1.00;;;;;;2607241;54;20154;-71
2024/03/06 01:25:52;;;;;;;1.70;1.60;;;23.80;1.00;;;;;;2607099;54;20179;-71
2024/03/06 01:28:18;;;;;;;1.60;1.50;;;23.70;1.00;;;;;;2607663;54;20152;-72
2024/03/06 01:30:43;;;;;;;1.40;1.40;;;23.70;1.00;;;;;;2609135;54;20427;-71
2024/03/06 01:33:09;;;;;;;1.60;1.50;;;23.70;1.00;;;;;;2609807;54;20435;-72
2024/03/06 01:35:35;;;;;;;1.63;1.53;;;23.70;1.00;;;;;;2607090;54;20196;-72
2024/03/06 01:38:01;;;;;;;5.93;5.63;;;23.70;1.00;;;;;;2609236;54;20510;-71
2024/03/06 01:40:28;;;;;;;1.70;1.60;;;23.70;1.00;;;;;;2609524;54;20171;-72
2024/03/06 01:42:54;;;;;;;1.50;1.40;;;23.70;1.00;;;;;;2610111;54;20151;-71
2024/03/06 01:45:20;;;;;;;1.87;1.77;;;23.70;1.00;;;;;;2608297;54;20420;-72
2024/03/06 01:47:45;;;;;;;1.40;1.40;;;23.70;1.00;;;;;;2608984;39;20876;-71
2024/03/06 01:50:12;;;;;;;1.50;1.40;;;23.70;1.00;;;;;;2607061;54;20169;-73
2024/03/06 01:52:39;;;;;;;1.60;1.50;;;23.70;1.00;;;;;;2608863;54;20154;-72
2024/03/06 01:55:06;;;;;;;1.50;1.40;;;23.70;1.00;;;;;;2608900;54;20399;-72
2024/03/06 01:57:34;;;;;;;1.47;1.40;;;23.60;1.00;;;;;;2608811;39;20787;-73
2024/03/06 02:00:01;;;;;;;1.60;1.50;;;23.60;1.00;;;;;;2609431;54;20395;-71
2024/03/06 02:02:27;;;;;;;1.50;1.40;;;23.60;1.00;;;;;;2611725;54;20424;-71
2024/03/06 02:04:57;;;;;;;1.60;1.50;;;23.60;1.00;;;;;;2611394;47;20417;-71
2024/03/06 02:07:24;;;;;;;1.50;1.40;;;23.60;1.00;;;;;;2612489;54;20189;-70
2024/03/06 02:09:49;;;;;;;1.40;1.40;;;23.60;1.00;;;;;;2611926;47;20481;-71
2024/03/06 02:12:16;;;;;;;1.70;1.60;;;23.60;1.00;;;;;;2612163;54;20428;-71
2024/03/06 02:14:41;;;;;;;2.40;2.30;;;23.60;1.00;;;;;;2611944;54;20165;-71
2024/03/06 02:17:07;;;;;;;1.80;1.70;;;23.50;1.00;;;;;;2612163;54;20944;-71
2024/03/06 02:19:40;;;;;;;1.70;1.60;;;23.50;1.00;;;;;;2612719;39;20395;-71
2024/03/06 02:22:07;;;;;;;1.60;1.50;;;23.50;1.00;;;;;;2613679;54;20283;-71
2024/03/06 02:24:34;;;;;;;1.70;1.60;;;23.50;1.00;;;;;;2612424;47;20494;-70
2024/03/06 02:26:59;;;;;;;1.63;1.53;;;23.50;1.00;;;;;;2612424;54;20425;-71
2024/03/06 02:29:25;;;;;;;1.80;1.70;;;23.50;1.00;;;;;;2611616;54;20753;-69
2024/03/06 02:31:50;;;;;;;1.60;1.50;;;23.50;1.00;;;;;;2611477;54;20162;-69
2024/03/06 02:34:16;;;;;;;1.70;1.60;;;23.50;1.00;;;;;;2612327;54;20158;-70
2024/03/06 02:36:42;;;;;;;1.70;1.60;;;23.50;1.00;;;;;;2612954;54;20189;-70
2024/03/06 02:39:08;;;;;;;1.70;1.60;;;23.50;1.00;;;;;;2611127;54;20257;-70
2024/03/06 02:41:36;;;;;;;1.90;1.80;;;23.50;1.00;;;;;;2612296;54;20218;-70
2024/03/06 02:44:02;;;;;;;1.70;1.60;;;23.50;1.00;;;;;;2614337;39;20935;-70
2024/03/06 02:46:28;;;;;;;1.70;1.60;;;23.50;1.00;;;;;;2612496;54;20414;-70
2024/03/06 02:48:54;;;;;;;1.77;1.67;;;23.50;1.00;;;;;;2613925;54;20394;-71
2024/03/06 02:51:20;;;;;;;1.80;1.70;;;23.50;1.00;;;;;;2611940;54;20155;-69
2024/03/06 02:53:48;;;;;;;1.80;1.70;;;23.50;1.00;;;;;;2612629;54;20782;-70
2024/03/06 02:56:18;;;;;;;1.60;1.50;;;23.50;1.00;;;;;;2610459;54;20420;-69
2024/03/06 02:58:44;;;;;;;1.67;1.57;;;23.50;1.00;;;;;;2613027;39;20825;-68
2024/03/06 03:01:10;;;;;;;1.60;1.50;;;23.50;1.00;;;;;;2611406;54;20427;-70
2024/03/06 03:03:36;;;;;;;1.60;1.50;;;23.40;1.00;;;;;;2608619;54;20482;-68
2024/03/06 03:06:01;;;;;;;1.63;1.53;;;23.50;1.00;;;;;;2608274;54;20500;-68
2024/03/06 03:08:27;;;;;;;1.47;1.37;;;23.40;1.00;;;;;;2612109;54;20152;-70
2024/03/06 03:10:53;;;;;;;1.60;1.50;;;23.40;1.00;;;;;;2611814;54;20175;-73
2024/03/06 03:13:18;;;;;;;1.50;1.50;;;23.40;1.00;;;;;;2613373;54;20150;-73
2024/03/06 03:15:44;;;;;;;2.07;1.97;;;23.40;1.00;;;;;;2612728;39;21228;-73
2024/03/06 03:18:09;;;;;;;1.53;1.43;;;23.40;1.00;;;;;;2614008;46;20695;-73
2024/03/06 03:20:36;;;;;;;1.60;1.50;;;23.40;1.00;;;;;;2611993;54;20180;-76
2024/03/06 03:23:02;;;;;;;1.53;1.43;;;23.40;1.00;;;;;;2612679;54;20747;-75
2024/03/06 03:25:28;;;;;;;1.50;1.40;;;23.40;1.00;;;;;;2612269;47;20419;-75
2024/03/06 03:27:53;;;;;;;1.73;1.63;;;23.40;1.00;;;;;;2612553;39;20784;-75
2024/03/06 03:30:22;;;;;;;1.60;1.50;;;23.40;1.00;;;;;;2613382;54;20146;-76
2024/03/06 03:32:48;;;;;;;1.63;1.53;;;23.40;1.00;;;;;;2613528;54;20152;-77
2024/03/06 03:35:14;;;;;;;1.60;1.50;;;23.40;1.00;;;;;;2613125;39;20859;-76
2024/03/06 03:37:39;;;;;;;1.50;1.40;;;23.40;1.00;;;;;;2614192;54;20398;-75
2024/03/06 03:40:06;;;;;;;1.60;1.50;;;23.40;1.00;;;;;;2610975;47;20167;-75
2024/03/06 03:42:32;;;;;;;1.80;1.70;;;23.40;1.00;;;;;;2610820;47;20216;-76
2024/03/06 03:44:58;;;;;;;1.60;1.50;;;23.40;1.00;;;;;;2613005;47;20423;-77
2024/03/06 03:47:23;;;;;;;1.50;1.40;;;23.40;1.00;;;;;;2613523;54;20159;-76
2024/03/06 03:49:49;;;;;;;1.47;1.37;;;23.40;1.00;;;;;;2612465;54;20165;-77
2024/03/06 03:52:15;;;;;;;1.30;1.30;;;23.40;1.00;;;;;;2613804;31;20647;-75
2024/03/06 03:54:42;;;;;;;1.73;1.63;;;23.40;1.00;;;;;;2613174;54;20232;-76
2024/03/06 03:57:08;;;;;;;1.70;1.60;;;23.40;1.00;;;;;;2613505;54;20419;-76
2024/03/06 03:59:34;;;;;;;1.63;1.53;;;23.40;1.00;;;;;;2611912;54;20452;-76
2024/03/06 04:01:59;;;;;;;1.67;1.57;;;23.30;1.00;;;;;;2613774;47;20427;-75
2024/03/06 04:04:25;;;;;;;1.80;1.70;;;23.30;1.00;;;;;;2612248;54;20146;-77
2024/03/06 04:06:51;;;;;;;1.83;1.73;;;23.30;1.00;;;;;;2613158;54;20205;-75
2024/03/06 04:09:16;;;;;;;1.70;1.60;;;23.30;1.00;;;;;;2611727;48;20212;-76
2024/03/06 04:11:42;;;;;;;1.70;1.60;;;23.30;1.00;;;;;;2612671;54;20155;-76
2024/03/06 04:14:09;;;;;;;1.90;1.80;;;23.30;1.00;;;;;;2613250;54;20155;-76
2024/03/06 04:16:34;;;;;;;1.80;1.70;;;23.30;1.00;;;;;;2613265;54;20180;-77
2024/03/06 04:19:01;;;;;;;1.90;1.80;;;23.30;1.00;;;;;;2612565;54;20402;-71
2024/03/06 04:21:26;;;;;;;1.67;1.57;;;23.30;1.00;;;;;;2612587;47;20187;-72
2024/03/06 04:23:52;;;;;;;1.80;1.70;;;23.30;1.00;;;;;;2609936;51;20417;-72
2024/03/06 04:26:18;;;;;;;1.70;1.60;;;23.30;1.00;;;;;;2610441;54;20172;-72
2024/03/06 04:28:44;;;;;;;1.80;1.70;;;23.30;1.00;;;;;;2611765;54;20148;-72
2024/03/06 04:31:10;;;;;;;2.07;1.97;;;23.30;1.00;;;;;;2611843;39;20455;-73
2024/03/06 04:33:36;;;;;;;1.80;1.70;;;23.40;1.00;;;;;;2612084;54;20990;-73
2024/03/06 04:36:03;;;;;;;1.90;1.80;;;23.30;1.00;;;;;;2613388;54;20193;-73
2024/03/06 04:38:29;;;;;;;1.87;1.77;;;23.40;1.00;;;;;;2613646;54;20391;-73
2024/03/06 04:40:55;;;;;;;1.80;1.70;;;23.30;1.00;;;;;;2612612;54;20808;-71
2024/03/06 04:43:20;;;;;;;1.87;1.77;;;23.30;1.00;;;;;;2611805;54;20140;-73
2024/03/06 04:45:46;;;;;;;1.87;1.77;;;23.30;1.00;;;;;;2610800;54;20160;-70
2024/03/06 04:48:12;;;;;;;1.73;1.63;;;23.30;1.00;;;;;;2613259;54;20165;-71
2024/03/06 04:50:37;;;;;;;1.90;1.80;;;23.30;1.00;;;;;;2611664;54;20226;-71
2024/03/06 04:53:03;;;;;;;1.80;1.70;;;23.30;1.00;;;;;;2613097;54;20153;-71
2024/03/06 04:55:30;;;;;;;1.70;1.60;;;23.30;1.00;;;;;;2610488;54;20170;-71
2024/03/06 04:57:56;;;;;;;1.77;1.67;;;23.30;1.00;;;;;;2611593;54;20162;-71
2024/03/06 05:00:23;;;;;;;1.90;1.80;;;23.30;1.00;;;;;;2612390;54;20510;-70
2024/03/06 05:02:51;;;;;;;1.80;1.70;;;23.20;1.00;;;;;;2612312;54;20400;-72
2024/03/06 05:05:17;;;;;;;1.60;1.50;;;23.30;1.00;;;;;;2613221;39;20803;-71
2024/03/06 05:07:43;;;;;;;1.63;1.53;;;23.30;1.00;;;;;;2613144;54;20406;-71
2024/03/06 05:10:09;;;;;;;1.60;1.50;;;23.20;1.00;;;;;;2613497;39;20453;-72
2024/03/06 05:12:34;;;;;;;2.03;1.93;;;23.20;1.00;;;;;;2612506;46;20427;-71
2024/03/06 05:15:00;;;;;;;2.10;2.00;;;23.20;1.00;;;;;;2610516;39;21043;-72
2024/03/06 05:17:26;;;;;;;1.70;1.60;;;23.20;1.00;;;;;;2611577;54;20305;-71
2024/03/06 05:19:52;;;;;;;1.87;1.77;;;23.30;1.00;;;;;;2612188;54;20176;-71
2024/03/06 05:22:18;;;;;;;1.73;1.63;;;23.20;1.00;;;;;;2613055;54;20160;-71
2024/03/06 05:24:44;;;;;;;1.70;1.60;;;23.30;1.00;;;;;;2612510;47;20442;-73
2024/03/06 05:27:13;;;;;;;1.50;1.40;;;23.20;1.00;;;;;;2612685;54;20209;-73
2024/03/06 05:29:39;;;;;;;1.80;1.70;;;23.20;1.00;;;;;;2611951;54;20396;-70
2024/03/06 05:32:06;;;;;;;1.70;1.60;;;23.20;1.00;;;;;;2612427;54;20430;-72
2024/03/06 05:34:33;;;;;;;1.60;1.50;;;23.20;1.00;;;;;;2612118;54;20468;-71
2024/03/06 05:36:59;;;;;;;1.70;1.60;;;23.20;1.00;;;;;;2612564;54;20537;-72
2024/03/06 05:39:25;;;;;;;1.63;1.53;;;23.30;1.00;;;;;;2610877;54;20407;-66
2024/03/06 05:41:50;;;;;;;1.63;1.53;;;23.30;1.00;;;;;;2612469;54;20429;-66
2024/03/06 05:44:16;;;;;;;1.50;1.40;;;23.30;1.00;;;;;;2612249;54;20149;-66
2024/03/06 05:46:42;;;;;;;1.80;1.70;;;23.30;1.00;;;;;;2611120;54;20285;-65
2024/03/06 05:49:07;;;;;;;2.43;2.33;;;23.30;1.00;;;;;;2609505;54;20201;-66
2024/03/06 05:51:33;;;;;;;1.73;1.63;;;23.40;1.00;;;;;;2609242;54;20169;-66
2024/03/06 05:53:58;;;;;;;1.70;1.60;;;23.40;1.00;;;;;;2610045;54;20249;-66
2024/03/06 05:56:24;;;;;;;1.80;1.70;;;23.40;1.00;;;;;;2611440;54;20182;-66
2024/03/06 05:58:50;;;;;;;1.60;1.50;;;23.40;1.00;;;;;;2612783;54;20161;-65
2024/03/06 06:01:19;;;;;;;1.60;1.50;;;23.40;1.00;;;;;;2608888;54;20223;-65
2024/03/06 06:03:46;;;;;;;1.70;1.60;;;23.40;1.00;;;;;;2611674;54;20168;-64
2024/03/06 06:06:15;;;;;;;1.70;1.60;;;23.40;1.00;;;;;;2610836;54;20480;-64
2024/03/06 06:08:40;;;;;;;1.80;1.70;;;23.40;1.00;;;;;;2610257;54;20414;-65
2024/03/06 06:11:07;;;;;;;1.63;1.53;;;23.40;1.00;;;;;;2608210;54;20513;-65
2024/03/06 06:13:33;;;;;;;2.10;2.00;;;23.40;1.00;;;;;;2611387;54;20185;-65
2024/03/06 06:16:01;;;;;;;2.50;2.40;;;23.40;1.00;;;;;;2611925;47;20437;-65
2024/03/06 06:18:26;;;;;;;2.40;2.30;;;23.40;1.00;;;;;;2608617;54;20198;-64
2024/03/06 06:20:52;;;;;;;2.23;2.13;;;23.40;1.00;;;;;;2608043;54;20973;-64
2024/03/06 06:23:18;;;;;;;2.60;2.50;;;23.40;1.00;;;;;;2608793;54;20148;-65
2024/03/06 06:25:43;;;;;;;2.40;2.30;;;23.40;1.00;;;;;;2610388;54;20240;-63
2024/03/06 06:28:10;;;;;;;1.93;1.83;;;23.40;1.00;;;;;;2612513;54;20162;-65
2024/03/06 06:30:36;;;;;;;1.90;1.80;;;23.40;1.00;;;;;;2612255;39;20656;-65
2024/03/06 06:33:01;;;;;;;2.70;2.60;;;23.40;1.00;;;;;;2612539;54;20424;-65
2024/03/06 06:35:27;;;;;;;2.10;2.00;;;23.40;1.00;;;;;;2611831;54;20452;-65
2024/03/06 06:37:53;;;;;;;2.20;2.10;;;23.40;1.00;;;;;;2611410;54;20250;-64
2024/03/06 06:40:19;;;;;;;2.00;1.90;;;23.40;1.00;;;;;;2608160;54;20153;-65
2024/03/06 06:42:49;;;;;;;2.13;2.03;;;23.40;1.00;;;;;;2607451;54;20158;-65
2024/03/06 06:45:19;;;;;;;2.27;2.17;;;23.40;1.00;;;;;;2608555;31;20856;-64
2024/03/06 06:47:45;;;;;;;1.93;1.83;;;23.40;1.00;;;;;;2609859;47;20416;-64
2024/03/06 06:50:11;;;;;;;1.60;1.50;;;23.40;1.00;;;;;;2608246;54;20465;-80
2024/03/06 06:52:37;;;;;;;1.93;1.83;;;23.40;1.00;;;;;;2608230;54;20454;-79
2024/03/06 06:55:04;;;;;;;2.20;2.10;;;23.40;1.00;;;;;;2609339;39;20821;-80
2024/03/06 06:57:30;;;;;;;2.10;2.00;;;23.10;1.00;;;;;;2609231;54;20414;-80
2024/03/06 06:59:56;;;;;;;2.00;1.90;;;22.90;1.00;;;;;;2609259;54;20415;-81
2024/03/06 07:02:21;;;;;;;2.07;1.97;;;22.90;1.00;;;;;;2610763;54;20411;-79
2024/03/06 07:04:48;;;;;;;2.10;2.00;;;23.00;1.00;;;;;;2611569;47;20168;-80
2024/03/06 07:07:14;;;;;;;1.97;1.87;;;23.00;1.00;;;;;;2611114;54;20177;-79
2024/03/06 07:09:40;;;;;;;2.00;1.90;;;23.00;1.00;;;;;;2613182;54;21040;-80
2024/03/06 07:12:07;;;;;;;1.80;1.70;;;23.10;1.00;;;;;;2612679;39;20560;-79
2024/03/06 07:14:33;;;;;;;2.00;1.90;;;23.10;1.00;;;;;;2613016;31;20613;-79
2024/03/06 07:16:59;;;;;;;2.20;2.10;;;23.10;1.00;;;;;;2609791;54;20419;-79
2024/03/06 07:19:24;;;;;;;2.00;1.90;;;23.10;1.00;;;;;;2611060;54;20155;-80
2024/03/06 07:21:50;;;;;;;2.00;1.90;;;23.10;1.00;;;;;;2613303;54;20172;-80
2024/03/06 07:24:16;;;;;;;1.80;1.70;;;23.10;1.00;;;;;;2612207;47;20183;-81
2024/03/06 07:26:42;;;;;;;1.80;1.70;;;23.10;1.00;;;;;;2614119;54;20150;-80
2024/03/06 07:29:14;;;;;;;1.60;1.50;;;23.10;1.00;;;;;;2613398;39;20296;-81
2024/03/06 07:31:44;;;;;;;1.80;1.70;;;23.10;1.00;;;;;;2611255;54;20426;-81
2024/03/06 07:34:10;;;;;;;1.70;1.60;;;23.10;1.00;;;;;;2610751;54;20430;-80
2024/03/06 07:36:35;;;;;;;1.90;1.80;;;23.10;1.00;;;;;;2612774;39;20860;-79
2024/03/06 07:39:02;;;;;;;1.70;1.60;;;23.10;1.00;;;;;;2610496;54;20558;-80
2024/03/06 07:41:28;;;;;;;1.70;1.60;;;23.20;1.00;;;;;;2610989;54;20767;-77
2024/03/06 07:43:54;;;;;;;1.80;1.70;;;23.20;1.00;;;;;;2611408;54;20407;-79
2024/03/06 07:46:19;;;;;;;1.70;1.60;;;23.10;1.00;;;;;;2611461;54;20160;-80
2024/03/06 07:48:45;;;;;;;1.90;1.80;;;23.10;1.00;;;;;;2613397;54;20167;-70
2024/03/06 07:51:11;;;;;;;1.80;1.70;;;23.10;1.00;;;;;;2612623;54;20144;-71
2024/03/06 07:53:37;;;;;;;1.83;1.73;;;23.20;1.00;;;;;;2612280;54;20168;-71
2024/03/06 07:56:03;;;;;;;2.00;1.90;;;23.20;1.00;;;;;;2612254;54;20596;-72
2024/03/06 07:58:29;;;;;;;1.97;1.87;;;23.10;1.00;;;;;;2611505;54;20703;-71
2024/03/06 08:00:56;;;;;;;1.90;1.80;;;23.10;1.00;;;;;;2612813;54;20503;-68
2024/03/06 08:03:22;;;;;;;1.73;1.63;;;23.10;1.00;;;;;;2612652;54;20176;-70
2024/03/06 08:05:52;;;;;;;1.90;1.80;;;23.10;1.00;;;;;;2612999;54;20445;-69
2024/03/06 08:08:18;;;;;;;1.80;1.70;;;23.20;1.00;;;;;;2612541;54;20429;-70
2024/03/06 08:10:44;;;;;;;1.77;1.67;;;23.10;1.00;;;;;;2613081;54;21016;-70
2024/03/06 08:13:10;;;;;;;1.80;1.70;;;23.10;1.00;;;;;;2613168;54;20163;-69
2024/03/06 08:15:36;;;;;;;1.70;1.60;;;23.10;1.00;;;;;;2611150;54;21008;-70
2024/03/06 08:18:03;;;;;;;1.80;1.70;;;23.10;1.00;;;;;;2612991;54;20163;-70
2024/03/06 08:20:29;;;;;;;2.00;1.90;;;23.10;1.00;;;;;;2613804;39;20738;-70
2024/03/06 08:22:56;;;;;;;1.90;1.80;;;23.10;1.00;;;;;;2612639;54;20431;-70
2024/03/06 08:25:22;;;;;;;1.90;1.80;;;23.10;1.00;;;;;;2611192;54;20394;-69
2024/03/06 08:27:47;;;;;;;1.90;1.80;;;23.00;1.00;;;;;;2612124;54;20421;-70
2024/03/06 08:30:13;;;;;;;1.90;1.80;;;23.10;1.00;;;;;;2612184;54;20152;-69
2024/03/06 08:32:39;;;;;;;1.80;1.70;;;23.10;1.00;;;;;;2611820;54;20178;-70
2024/03/06 08:35:06;;;;;;;1.90;1.80;;;23.10;1.00;;;;;;2612739;54;20259;-70
2024/03/06 08:37:34;;;;;;;1.80;1.70;;;23.10;1.00;;;;;;2612957;39;20496;-69
2024/03/06 08:40:00;;;;;;;1.80;1.70;;;23.10;1.00;;;;;;2612763;54;20436;-70
2024/03/06 08:42:27;;;;;;;1.60;1.50;;;23.10;1.00;;;;;;2612309;54;20447;-70
2024/03/06 08:44:52;;;;;;;1.80;1.70;;;23.10;1.00;;;;;;2612182;54;20418;-69
2024/03/06 08:47:18;;;;;;;1.73;1.63;;;23.10;1.00;;;;;;2612011;54;20510;-68
2024/03/06 08:49:44;;;;;;;1.90;1.80;;;23.20;1.00;;;;;;2612772;47;20192;-70
2024/03/06 08:52:10;;;;;;;1.60;1.50;;;23.20;1.00;;;;;;2612838;54;20179;-70
2024/03/06 08:54:36;;;;;;;1.80;1.70;;;23.20;1.00;;;;;;2611928;54;20419;-71
2024/03/06 08:57:03;;;;;;;1.70;1.60;;;23.20;1.00;;;;;;2612732;54;20672;-71
2024/03/06 08:59:31;;;;;;;1.63;1.53;;;23.30;1.00;;;;;;2610596;54;20408;-72
2024/03/06 09:01:57;;;;;;;2.00;1.90;;;23.30;1.00;;;;;;2611721;39;21202;-72
2024/03/06 09:04:23;;;;;;;1.60;1.50;;;23.40;1.00;;;;;;2611658;54;20400;-72
2024/03/06 09:06:51;;;;;;;2.07;1.97;;;23.40;1.00;;;;;;2613216;39;20741;-72
2024/03/06 09:09:17;;;;;;;1.70;1.60;;;23.40;1.00;;;;;;2612448;54;20701;-71
2024/03/06 09:11:42;;;;;;;1.60;1.50;;;23.40;1.00;;;;;;2612954;54;20404;-71
2024/03/06 09:14:11;;;;;;;1.47;1.37;;;23.50;1.00;;;;;;2613043;54;20167;-72
2024/03/06 09:16:36;;;;;;;2.27;2.17;;;23.50;1.00;;;;;;2612669;54;20975;-71
2024/03/06 09:19:02;;;;;;;1.70;1.60;;;23.50;1.00;;;;;;2610864;54;20412;-71
2024/03/06 09:21:28;;;;;;;2.63;2.53;;;23.50;1.00;;;;;;2612486;39;20574;-72
2024/03/06 09:23:54;;;;;;;1.50;1.40;;;23.60;1.00;;;;;;2611934;54;20143;-72
2024/03/06 09:26:20;;;;;;;1.70;1.60;;;23.60;1.00;;;;;;2613069;54;20504;-72
2024/03/06 09:28:46;;;;;;;1.70;1.60;;;23.60;1.00;;;;;;2612329;39;20575;-71
2024/03/06 09:31:13;;;;;;;1.60;1.50;;;23.60;1.00;;;;;;2612801;54;20402;-71
2024/03/06 09:33:42;;;;;;;1.77;1.67;;;23.60;1.00;;;;;;2611243;39;20689;-71
2024/03/06 09:36:10;;;;;;;1.20;1.20;;;23.60;1.00;;;;;;2612545;39;20502;-71
2024/03/06 09:38:37;;;;;;;1.50;1.40;;;23.70;1.00;;;;;;2612650;54;20974;-72
2024/03/06 09:41:03;;;;;;;1.47;1.37;;;23.70;1.00;;;;;;2611082;54;21321;-72
2024/03/06 09:43:29;;;;;;;1.60;1.50;;;23.70;1.00;;;;;;2612922;54;20557;-72
2024/03/06 09:45:56;;;;;;;1.10;1.10;;;23.70;1.00;;;;;;2612517;54;20417;-72
2024/03/06 09:48:22;;;;;;;1.80;1.70;;;23.70;1.00;;;;;;2610084;54;20163;-72
2024/03/06 09:50:50;;;;;;;1.73;1.63;;;23.70;1.00;;;;;;2611641;54;20580;-72
2024/03/06 09:53:16;;;;;;;1.80;1.70;;;23.70;1.00;;;;;;2612157;54;20406;-71
2024/03/06 09:55:42;;;;;;;1.77;1.67;;;23.80;1.00;;;;;;2608812;54;20598;-72
2024/03/06 09:58:08;;;;;;;1.73;1.63;;;23.80;1.00;;;;;;2610966;54;20398;-72
2024/03/06 10:00:37;;;;;;;1.70;1.60;;;23.90;1.00;;;;;;2608559;54;20443;-72
2024/03/06 10:03:08;;;;;;;1.87;1.77;;;23.90;1.00;;;;;;2607775;54;20447;-72
2024/03/06 10:05:34;;;;;;;1.70;1.60;;;23.90;1.00;;;;;;2609089;54;20975;-72
2024/03/06 10:08:04;;;;;;;1.40;1.40;;;23.90;1.00;;;;;;2612366;54;20383;-71
2024/03/06 10:10:30;;;;;;;1.80;1.70;;;23.90;1.00;;;;;;2610483;54;20408;-80
2024/03/06 10:13:00;;;;;;;1.80;1.70;;;23.90;1.00;;;;;;2613022;39;20878;-81
2024/03/06 10:15:29;;;;;;;1.70;1.60;;;24.00;1.00;;;;;;2609419;54;20461;-80
2024/03/06 10:18:15;;;;;;;1.93;1.83;;;24.00;1.00;;;;;;2609397;54;20477;-80
2024/03/06 10:20:44;;;;;;;1.87;1.77;;;24.00;1.00;;;;;;2610415;39;20925;-71
2024/03/06 10:23:10;;;;;;;1.43;1.40;;;24.10;1.00;;;;;;2610088;54;20398;-71
2024/03/06 10:25:36;;;;;;;1.90;1.80;;;24.10;1.00;;;;;;2609171;54;20445;-72
2024/03/06 10:28:03;;;;;;;1.80;1.70;;;24.10;1.00;;;;;;2609497;54;20397;-71
2024/03/06 10:30:29;;;;;;;1.80;1.70;;;24.10;1.00;;;;;;2609435;54;20399;-71
2024/03/06 10:32:54;;;;;;;1.70;1.60;;;24.10;1.00;;;;;;2609593;47;21012;-71
2024/03/06 10:35:24;;;;;;;1.70;1.60;;;24.20;1.00;;;;;;2607754;54;20194;-72
2024/03/06 10:37:50;;;;;;;1.80;1.70;;;24.20;1.00;;;;;;2608460;54;20192;-71
2024/03/06 10:40:19;;;;;;;1.73;1.63;;;24.20;1.00;;;;;;2611925;54;20473;-71
2024/03/06 10:42:45;;;;;;;1.70;1.60;;;24.20;1.00;;;;;;2612760;47;20416;-72
2024/03/06 10:45:15;;;;;;;1.63;1.53;;;24.10;1.00;;;;;;2612542;54;20429;-72
2024/03/06 10:47:45;;;;;;;10.43;4.40;;;24.10;1.00;;;;;;2611113;54;21011;-71
2024/03/06 10:50:12;;;;;;;1.50;1.40;;;24.10;1.00;;;;;;2610552;54;20401;-71
2024/03/06 10:52:39;;;;;;;1.80;1.70;;;24.10;1.00;;;;;;2611330;54;20969;-72
2024/03/06 10:55:06;;;;;;;1.90;1.80;;;24.10;1.00;;;;;;2609065;54;21003;-72
2024/03/06 10:57:33;;;;;;;1.63;1.53;;;24.10;1.00;;;;;;2609663;47;20509;-72
2024/03/06 11:00:00;;;;;;;1.80;1.70;;;24.20;1.00;;;;;;2609589;54;21106;-72
2024/03/06 11:02:28;;;;;;;1.43;1.40;;;24.20;1.00;;;;;;2608938;54;20461;-72
2024/03/06 11:04:54;;;;;;;1.60;1.50;;;24.30;1.00;;;;;;2610046;54;20401;-71
2024/03/06 11:07:20;;;;;;;1.50;1.50;;;24.20;1.00;;;;;;2609950;39;20904;-71
2024/03/06 11:09:49;;;;;;;1.77;1.67;;;24.20;1.00;;;;;;2609516;54;20148;-72
2024/03/06 11:12:33;;;;;;;2.80;2.67;;;24.20;1.00;;;;;;2610181;54;20403;-71
2024/03/06 11:14:59;;;;;;;1.70;1.60;;;24.20;1.00;;;;;;2608754;54;21433;-73
2024/03/06 11:17:28;;;;;;;1.90;1.80;;;24.10;1.00;;;;;;2609500;54;20407;-72
2024/03/06 11:19:59;;;;;;;1.70;1.60;;;24.10;1.00;;;;;;2609251;54;20149;-70
2024/03/06 11:22:59;;;;;;;1.80;1.70;;;24.10;1.00;;;;;;2612916;54;20430;-69
2024/03/06 11:28:29;;;;;;;1.60;1.50;;;24.00;1.00;;;;;;2613175;47;20966;-70
2024/03/06 11:31:00;;;;;;;1.90;1.80;;;24.00;1.00;;;;;;2610491;54;20411;-72
2024/03/06 11:33:39;;;;;;;1.70;1.60;;;24.00;1.00;;;;;;2613497;54;20438;-71
2024/03/06 11:36:21;;;;;;;1.60;1.50;;;24.00;1.00;;;;;;2608435;54;21070;-71
2024/03/06 11:38:53;;;;;;;1.50;1.40;;;24.00;1.00;;;;;;2611929;54;20427;-71
2024/03/06 11:41:47;;;;;;;1.33;1.30;;;24.00;1.00;;;;;;2613344;39;20773;-71
2024/03/06 11:44:16;;;;;;;1.70;1.60;;;24.00;1.00;;;;;;2610869;54;20476;-71
2024/03/06 11:46:42;;;;;;;1.70;1.60;;;24.00;1.00;;;;;;2609964;54;20415;-71
2024/03/06 11:49:37;;;;;;;1.60;1.50;;;24.00;1.00;;;;;;2609534;54;20414;-72
2024/03/06 11:52:08;;;;;;;1.70;1.60;;;23.90;1.00;;;;;;2611319;54;20482;-71
2024/03/06 11:54:34;;;;;;;1.70;1.60;;;24.00;1.00;;;;;;2611514;54;20403;-73
2024/03/06 11:57:02;;;;;;;1.40;1.40;;;23.90;1.00;;;;;;2613696;54;20404;-72
2024/03/06 11:59:28;;;;;;;1.30;1.30;;;23.90;1.00;;;;;;2613022;54;20403;-72
2024/03/06 12:02:01;;;;;;;1.70;1.60;;;23.90;1.00;;;;;;2611006;39;20659;-71
2024/03/06 12:04:27;;;;;;;1.67;1.57;;;23.90;1.00;;;;;;2612724;54;20411;-71
2024/03/06 12:06:56;;;;;;;1.70;1.60;;;24.00;1.00;;;;;;2613026;54;21001;-72
2024/03/06 12:09:22;;;;;;;1.70;1.60;;;24.00;1.00;;;;;;2612971;54;20411;-71
2024/03/06 12:11:47;;;;;;;1.70;1.60;;;23.90;1.00;;;;;;2611687;54;20990;-70
2024/03/06 12:14:18;;;;;;;1.63;1.53;;;24.00;1.00;;;;;;2610878;54;20253;-71
2024/03/06 12:16:57;;;;;;;1.90;1.80;;;24.00;1.00;;;;;;2612193;54;20206;-71
2024/03/06 12:19:22;;;;;;;1.60;1.50;;;24.10;1.00;;;;;;2611126;54;20424;-70
2024/03/06 12:21:48;;;;;;;1.77;1.67;;;24.10;1.00;;;;;;2611735;48;20432;-71
2024/03/06 12:24:18;;;;;;;1.60;1.50;;;24.10;1.00;;;;;;2608252;54;20168;-71
2024/03/06 12:26:44;;;;;;;1.60;1.50;;;24.10;1.00;;;;;;2609719;39;20560;-70
2024/03/06 12:29:11;;;;;;;2.77;2.67;;;24.10;1.00;;;;;;2609800;54;20482;-68
2024/03/06 12:31:41;;;;;;;1.60;1.50;;;24.10;1.00;;;;;;2609987;54;20393;-69
2024/03/06 12:34:07;;;;;;;1.80;1.70;;;24.10;1.00;;;;;;2608304;54;20418;-68
2024/03/06 12:36:34;;;;;;;1.80;1.70;;;24.00;1.00;;;;;;2607794;47;20472;-68
2024/03/06 12:39:02;;;;;;;2.10;2.00;;;24.00;1.00;;;;;;2610086;54;20172;-71
2024/03/06 12:41:28;;;;;;;1.80;1.70;;;24.00;1.00;;;;;;2607840;47;20463;-71
2024/03/06 12:43:55;;;;;;;1.80;1.70;;;23.90;1.00;;;;;;2611373;54;20397;-71
2024/03/06 12:46:21;;;;;;;1.70;1.60;;;24.00;1.00;;;;;;2611814;54;20390;-71
2024/03/06 12:48:47;;;;;;;1.70;1.60;;;23.90;1.00;;;;;;2611310;39;20883;-71
2024/03/06 12:51:13;;;;;;;1.80;1.70;;;24.00;1.00;;;;;;2610268;54;20407;-71
2024/03/06 12:53:39;;;;;;;1.70;1.60;;;24.00;1.00;;;;;;2609740;47;20166;-71
2024/03/06 12:56:05;;;;;;;1.53;1.43;;;24.00;1.00;;;;;;2609148;54;20152;-72
2024/03/06 12:58:31;;;;;;;1.53;1.43;;;24.00;1.00;;;;;;2610941;47;20424;-73